createdAt,value
2018-12-07T00:00:33.680Z,100.0
2018-12-07T00:01:35.063Z,100.0
2018-12-07T00:02:36.449Z,100.0
2018-12-07T00:03:37.836Z,100.0
2018-12-07T00:04:39.220Z,100.0
2018-12-07T00:05:40.613Z,100.0
2018-12-07T00:06:41.994Z,100.0
2018-12-07T00:07:43.429Z,100.0
2018-12-07T00:08:44.819Z,100.0
2018-12-07T00:09:46.210Z,100.0
2018-12-07T00:10:47.597Z,100.0
2018-12-07T00:11:48.991Z,100.0
2018-12-07T00:12:50.373Z,100.0
2018-12-07T00:13:51.765Z,100.0
2018-12-07T00:14:53.152Z,100.0
2018-12-07T00:15:54.533Z,100.0
2018-12-07T00:16:55.917Z,100.0
2018-12-07T00:17:57.304Z,100.0
2018-12-07T00:18:58.689Z,100.0
2018-12-07T00:20:00.077Z,100.0
2018-12-07T00:21:01.463Z,100.0
2018-12-07T00:22:02.842Z,100.0
2018-12-07T00:23:04.233Z,100.0
2018-12-07T00:24:05.616Z,100.0
2018-12-07T00:25:07.016Z,100.0
2018-12-07T00:26:08.404Z,100.0
2018-12-07T00:27:09.788Z,100.0
2018-12-07T00:28:11.185Z,100.0
2018-12-07T00:29:12.580Z,100.0
2018-12-07T00:30:13.962Z,100.0
2018-12-07T00:31:15.358Z,100.0
2018-12-07T00:32:16.760Z,100.0
2018-12-07T00:33:18.154Z,100.0
2018-12-07T00:34:19.547Z,100.0
2018-12-07T00:35:20.926Z,100.0
2018-12-07T00:36:22.311Z,100.0
2018-12-07T00:37:23.693Z,100.0
2018-12-07T00:38:25.084Z,100.0
2018-12-07T00:39:26.469Z,100.0
2018-12-07T00:40:27.859Z,100.0
2018-12-07T00:41:29.245Z,100.0
2018-12-07T00:42:30.628Z,100.0
2018-12-07T00:43:32.021Z,100.0
2018-12-07T00:44:33.408Z,100.0
2018-12-07T00:45:34.790Z,100.0
2018-12-07T00:46:36.178Z,100.0
2018-12-07T00:47:37.585Z,100.0
2018-12-07T00:48:39.028Z,100.0
2018-12-07T00:49:40.477Z,100.0
2018-12-07T00:50:41.864Z,100.0
2018-12-07T00:51:43.244Z,100.0
2018-12-07T00:52:44.625Z,100.0
2018-12-07T00:53:46.015Z,100.0
2018-12-07T00:54:47.406Z,100.0
2018-12-07T00:55:48.794Z,100.0
2018-12-07T00:56:50.185Z,100.0
2018-12-07T00:57:51.567Z,100.0
2018-12-07T00:58:52.969Z,100.0
2018-12-07T00:59:54.374Z,100.0
2018-12-07T01:00:55.765Z,100.0
2018-12-07T01:01:57.149Z,100.0
2018-12-07T01:02:58.536Z,100.0
2018-12-07T01:03:59.928Z,100.0
2018-12-07T01:05:01.311Z,100.0
2018-12-07T01:06:02.698Z,100.0
2018-12-07T01:07:04.084Z,100.0
2018-12-07T01:08:05.471Z,100.0
2018-12-07T01:09:06.858Z,100.0
2018-12-07T01:10:08.246Z,100.0
2018-12-07T01:11:09.641Z,100.0
2018-12-07T01:12:11.024Z,100.0
2018-12-07T01:13:12.407Z,100.0
2018-12-07T01:14:13.791Z,100.0
2018-12-07T01:15:15.184Z,100.0
2018-12-07T01:16:16.575Z,100.0
2018-12-07T01:17:17.960Z,100.0
2018-12-07T01:18:19.352Z,100.0
2018-12-07T01:19:20.750Z,100.0
2018-12-07T01:20:22.131Z,100.0
2018-12-07T01:21:23.527Z,100.0
2018-12-07T01:22:24.915Z,100.0
2018-12-07T01:23:26.301Z,100.0
2018-12-07T01:24:27.691Z,100.0
2018-12-07T01:25:29.072Z,100.0
2018-12-07T01:26:30.458Z,100.0
2018-12-07T01:27:31.840Z,100.0
2018-12-07T01:28:33.225Z,100.0
2018-12-07T01:29:34.616Z,100.0
2018-12-07T01:30:36.002Z,100.0
2018-12-07T01:31:37.389Z,100.0
2018-12-07T01:32:38.792Z,100.0
2018-12-07T01:33:40.179Z,100.0
2018-12-07T01:34:41.560Z,100.0
2018-12-07T01:35:42.947Z,100.0
2018-12-07T01:36:44.345Z,100.0
2018-12-07T01:37:45.736Z,100.0
2018-12-07T01:38:47.137Z,100.0
2018-12-07T01:39:48.644Z,100.0
2018-12-07T01:40:50.042Z,100.0
2018-12-07T01:41:51.417Z,100.0
2018-12-07T01:42:52.811Z,100.0
2018-12-07T01:43:54.196Z,100.0
2018-12-07T01:44:55.586Z,100.0
2018-12-07T01:45:56.987Z,100.0
2018-12-07T01:46:58.375Z,100.0
2018-12-07T01:47:59.758Z,100.0
2018-12-07T01:49:01.155Z,100.0
2018-12-07T01:50:02.540Z,100.0
2018-12-07T01:51:03.921Z,100.0
2018-12-07T01:52:05.313Z,100.0
2018-12-07T01:53:06.703Z,100.0
2018-12-07T01:54:08.098Z,100.0
2018-12-07T01:55:09.482Z,100.0
2018-12-07T01:56:10.870Z,100.0
2018-12-07T01:57:12.253Z,100.0
2018-12-07T01:58:13.652Z,100.0
2018-12-07T01:59:15.042Z,100.0
2018-12-07T02:00:16.424Z,100.0
2018-12-07T02:01:17.809Z,100.0
2018-12-07T02:02:19.191Z,100.0
2018-12-07T02:03:20.579Z,100.0
2018-12-07T02:04:21.967Z,100.0
2018-12-07T02:05:23.409Z,100.0
2018-12-07T02:06:24.768Z,100.0
2018-12-07T02:07:26.150Z,100.0
2018-12-07T02:08:27.543Z,100.0
2018-12-07T02:09:28.942Z,100.0
2018-12-07T02:10:30.330Z,100.0
2018-12-07T02:11:31.720Z,100.0
2018-12-07T02:12:33.103Z,100.0
2018-12-07T02:13:34.502Z,100.0
2018-12-07T02:14:35.906Z,100.0
2018-12-07T02:15:37.296Z,100.0
2018-12-07T02:16:38.681Z,100.0
2018-12-07T02:17:40.102Z,100.0
2018-12-07T02:18:41.500Z,100.0
2018-12-07T02:19:42.901Z,100.0
2018-12-07T02:20:44.294Z,100.0
2018-12-07T02:21:45.682Z,100.0
2018-12-07T02:22:47.067Z,100.0
2018-12-07T02:23:48.455Z,100.0
2018-12-07T02:24:49.841Z,100.0
2018-12-07T02:25:51.230Z,100.0
2018-12-07T02:26:52.617Z,100.0
2018-12-07T02:27:54.001Z,100.0
2018-12-07T02:28:55.389Z,100.0
2018-12-07T02:29:56.782Z,100.0
2018-12-07T02:30:58.253Z,100.0
2018-12-07T02:31:59.658Z,100.0
2018-12-07T02:33:01.044Z,100.0
2018-12-07T02:34:02.474Z,100.0
2018-12-07T02:35:03.851Z,100.0
2018-12-07T02:36:05.245Z,100.0
2018-12-07T02:37:06.626Z,100.0
2018-12-07T02:38:08.016Z,100.0
2018-12-07T02:39:09.402Z,100.0
2018-12-07T02:40:10.788Z,100.0
2018-12-07T02:41:12.168Z,100.0
2018-12-07T02:42:13.568Z,100.0
2018-12-07T02:43:14.959Z,100.0
2018-12-07T02:44:16.347Z,100.0
2018-12-07T02:45:17.733Z,100.0
2018-12-07T02:46:19.126Z,100.0
2018-12-07T02:47:20.517Z,100.0
2018-12-07T02:48:21.901Z,100.0
2018-12-07T02:49:23.292Z,100.0
2018-12-07T02:50:24.679Z,100.0
2018-12-07T02:51:26.061Z,100.0
2018-12-07T02:52:27.460Z,100.0
2018-12-07T02:53:28.844Z,100.0
2018-12-07T02:54:30.228Z,100.0
2018-12-07T02:55:31.684Z,100.0
2018-12-07T02:56:33.081Z,100.0
2018-12-07T02:57:34.481Z,100.0
2018-12-07T02:58:35.994Z,100.0
2018-12-07T02:59:37.383Z,100.0
2018-12-07T03:00:38.773Z,100.0
2018-12-07T03:01:40.187Z,100.0
2018-12-07T03:02:41.580Z,100.0
2018-12-07T03:03:42.976Z,100.0
2018-12-07T03:04:44.370Z,100.0
2018-12-07T03:05:45.787Z,100.0
2018-12-07T03:06:47.173Z,100.0
2018-12-07T03:07:48.623Z,100.0
2018-12-07T03:08:50.018Z,100.0
2018-12-07T03:09:51.395Z,100.0
2018-12-07T03:10:52.790Z,100.0
2018-12-07T03:11:54.179Z,100.0
2018-12-07T03:12:55.563Z,100.0
2018-12-07T03:13:56.957Z,100.0
2018-12-07T03:14:58.344Z,100.0
2018-12-07T03:15:59.736Z,100.0
2018-12-07T03:17:01.122Z,100.0
2018-12-07T03:18:02.512Z,100.0
2018-12-07T03:19:03.903Z,100.0
2018-12-07T03:20:05.291Z,100.0
2018-12-07T03:21:06.775Z,100.0
2018-12-07T03:22:47.782Z,100.0
2018-12-07T03:23:49.185Z,100.0
2018-12-07T03:24:50.595Z,100.0
2018-12-07T03:25:51.991Z,100.0
2018-12-07T03:26:53.366Z,100.0
2018-12-07T03:27:54.750Z,100.0
2018-12-07T03:28:56.147Z,100.0
2018-12-07T03:29:57.524Z,100.0
2018-12-07T03:30:58.910Z,100.0
2018-12-07T03:32:00.296Z,100.0
2018-12-07T03:33:01.682Z,100.0
2018-12-07T03:34:03.059Z,100.0
2018-12-07T03:35:04.447Z,100.0
2018-12-07T03:36:05.850Z,100.0
2018-12-07T03:37:07.239Z,100.0
2018-12-07T03:38:08.624Z,100.0
2018-12-07T03:39:10.008Z,100.0
2018-12-07T03:40:11.394Z,100.0
2018-12-07T03:41:12.784Z,100.0
2018-12-07T03:42:14.258Z,100.0
2018-12-07T03:43:15.644Z,100.0
2018-12-07T03:44:17.031Z,100.0
2018-12-07T03:45:18.416Z,100.0
2018-12-07T03:46:19.796Z,100.0
2018-12-07T03:47:21.191Z,100.0
2018-12-07T03:48:22.597Z,100.0
2018-12-07T03:49:23.984Z,100.0
2018-12-07T03:50:25.369Z,100.0
2018-12-07T03:51:26.753Z,100.0
2018-12-07T03:52:28.140Z,100.0
2018-12-07T03:53:29.525Z,100.0
2018-12-07T03:54:30.911Z,100.0
2018-12-07T03:55:32.301Z,100.0
2018-12-07T03:56:33.681Z,100.0
2018-12-07T03:57:35.198Z,100.0
2018-12-07T03:58:36.598Z,100.0
2018-12-07T03:59:37.991Z,100.0
2018-12-07T04:00:39.374Z,100.0
2018-12-07T04:01:40.754Z,100.0
2018-12-07T04:02:42.147Z,100.0
2018-12-07T04:03:43.538Z,100.0
2018-12-07T04:04:44.922Z,100.0
2018-12-07T04:05:46.304Z,100.0
2018-12-07T04:06:47.686Z,100.0
2018-12-07T04:07:49.090Z,100.0
2018-12-07T04:08:50.474Z,100.0
2018-12-07T04:09:51.857Z,100.0
2018-12-07T04:10:53.242Z,100.0
2018-12-07T04:11:54.628Z,100.0
2018-12-07T04:12:56.016Z,100.0
2018-12-07T04:13:57.410Z,100.0
2018-12-07T04:14:58.794Z,100.0
2018-12-07T04:16:00.182Z,100.0
2018-12-07T04:17:01.567Z,100.0
2018-12-07T04:18:02.960Z,100.0
2018-12-07T04:19:04.342Z,100.0
2018-12-07T04:20:05.735Z,100.0
2018-12-07T04:21:07.109Z,100.0
2018-12-07T04:22:08.496Z,100.0
2018-12-07T04:23:09.877Z,100.0
2018-12-07T04:24:11.263Z,100.0
2018-12-07T04:25:12.658Z,100.0
2018-12-07T04:26:14.076Z,100.0
2018-12-07T04:27:15.466Z,100.0
2018-12-07T04:28:16.848Z,100.0
2018-12-07T04:29:18.232Z,100.0
2018-12-07T04:30:19.645Z,100.0
2018-12-07T04:31:21.003Z,100.0
2018-12-07T04:32:22.401Z,100.0
2018-12-07T04:33:23.793Z,100.0
2018-12-07T04:34:25.179Z,100.0
2018-12-07T04:35:26.557Z,100.0
2018-12-07T04:36:27.947Z,100.0
2018-12-07T04:37:29.327Z,100.0
2018-12-07T04:38:30.712Z,100.0
2018-12-07T04:39:32.098Z,100.0
2018-12-07T04:40:33.487Z,100.0
2018-12-07T04:41:34.868Z,100.0
2018-12-07T04:42:36.255Z,100.0
2018-12-07T04:43:37.643Z,100.0
2018-12-07T04:44:39.025Z,100.0
2018-12-07T04:45:40.409Z,100.0
2018-12-07T04:46:41.935Z,100.0
2018-12-07T04:47:43.339Z,100.0
2018-12-07T04:48:44.776Z,100.0
2018-12-07T04:49:46.195Z,100.0
2018-12-07T04:50:47.581Z,100.0
2018-12-07T04:51:48.967Z,100.0
2018-12-07T04:52:50.360Z,100.0
2018-12-07T04:53:51.744Z,100.0
2018-12-07T04:54:53.130Z,100.0
2018-12-07T04:55:54.586Z,100.0
2018-12-07T04:56:55.864Z,100.0
2018-12-07T04:57:57.264Z,100.0
2018-12-07T04:58:58.648Z,100.0
2018-12-07T05:00:00.036Z,100.0
2018-12-07T05:01:01.420Z,100.0
2018-12-07T05:02:02.806Z,100.0
2018-12-07T05:03:04.194Z,100.0
2018-12-07T05:04:05.582Z,100.0
2018-12-07T05:05:06.966Z,100.0
2018-12-07T05:06:08.347Z,100.0
2018-12-07T05:07:09.732Z,100.0
2018-12-07T05:08:11.115Z,100.0
2018-12-07T05:09:12.506Z,100.0
2018-12-07T05:10:13.900Z,100.0
2018-12-07T05:11:15.276Z,100.0
2018-12-07T05:12:16.656Z,100.0
2018-12-07T05:13:18.037Z,100.0
2018-12-07T05:14:19.429Z,100.0
2018-12-07T05:15:20.811Z,100.0
2018-12-07T05:16:22.195Z,100.0
2018-12-07T05:17:23.580Z,100.0
2018-12-07T05:18:24.964Z,100.0
2018-12-07T05:19:26.348Z,100.0
2018-12-07T05:20:27.730Z,100.0
2018-12-07T05:21:29.117Z,100.0
2018-12-07T05:22:30.509Z,100.0
2018-12-07T05:23:31.895Z,100.0
2018-12-07T05:24:34.649Z,100.0
2018-12-07T05:25:34.632Z,100.0
2018-12-07T05:26:36.014Z,100.0
2018-12-07T05:27:37.409Z,100.0
2018-12-07T05:28:38.795Z,100.0
2018-12-07T05:29:40.177Z,100.0
2018-12-07T05:30:41.570Z,100.0
2018-12-07T05:31:42.954Z,100.0
2018-12-07T05:32:44.339Z,100.0
2018-12-07T05:33:45.733Z,100.0
2018-12-07T05:34:47.120Z,100.0
2018-12-07T05:35:48.537Z,100.0
2018-12-07T05:36:49.922Z,100.0
2018-12-07T05:37:51.273Z,100.0
2018-12-07T05:38:52.675Z,100.0
2018-12-07T05:39:54.116Z,100.0
2018-12-07T05:40:55.517Z,100.0
2018-12-07T05:41:56.906Z,100.0
2018-12-07T05:42:58.296Z,100.0
2018-12-07T05:43:59.693Z,100.0
2018-12-07T05:45:01.191Z,100.0
2018-12-07T05:46:02.452Z,100.0
2018-12-07T05:47:03.838Z,100.0
2018-12-07T05:48:05.220Z,100.0
2018-12-07T05:49:06.615Z,100.0
2018-12-07T05:50:07.993Z,100.0
2018-12-07T05:51:09.386Z,100.0
2018-12-07T05:52:10.772Z,100.0
2018-12-07T05:53:12.154Z,100.0
2018-12-07T05:54:13.557Z,100.0
2018-12-07T05:55:14.946Z,100.0
2018-12-07T05:56:16.328Z,100.0
2018-12-07T05:57:17.719Z,100.0
2018-12-07T05:58:19.106Z,100.0
2018-12-07T05:59:20.502Z,100.0
2018-12-07T06:00:21.881Z,100.0
2018-12-07T06:01:23.265Z,100.0
2018-12-07T06:02:24.649Z,100.0
2018-12-07T06:03:26.034Z,100.0
2018-12-07T06:04:27.415Z,100.0
2018-12-07T06:05:28.810Z,100.0
2018-12-07T06:06:30.212Z,100.0
2018-12-07T06:07:31.619Z,100.0
2018-12-07T06:08:32.973Z,100.0
2018-12-07T06:09:34.353Z,100.0
2018-12-07T06:10:35.746Z,100.0
2018-12-07T06:11:37.138Z,100.0
2018-12-07T06:12:38.527Z,100.0
2018-12-07T06:13:39.959Z,100.0
2018-12-07T06:14:41.351Z,100.0
2018-12-07T06:15:42.730Z,100.0
2018-12-07T06:16:44.123Z,100.0
2018-12-07T06:17:45.523Z,100.0
2018-12-07T06:18:46.910Z,100.0
2018-12-07T06:19:48.301Z,100.0
2018-12-07T06:20:49.701Z,100.0
2018-12-07T06:21:51.088Z,100.0
2018-12-07T06:22:52.474Z,100.0
2018-12-07T06:23:53.862Z,100.0
2018-12-07T06:24:55.248Z,100.0
2018-12-07T06:25:56.630Z,100.0
2018-12-07T06:26:58.025Z,100.0
2018-12-07T06:27:59.425Z,100.0
2018-12-07T06:29:00.814Z,100.0
2018-12-07T06:30:02.192Z,100.0
2018-12-07T06:31:03.660Z,100.0
2018-12-07T06:32:05.043Z,100.0
2018-12-07T06:33:06.438Z,100.0
2018-12-07T06:34:07.818Z,100.0
2018-12-07T06:35:09.201Z,100.0
2018-12-07T06:36:10.589Z,100.0
2018-12-07T06:37:11.982Z,100.0
2018-12-07T06:38:13.368Z,100.0
2018-12-07T06:39:14.759Z,100.0
2018-12-07T06:40:16.147Z,100.0
2018-12-07T06:41:17.545Z,100.0
2018-12-07T06:42:18.954Z,100.0
2018-12-07T06:43:20.344Z,100.0
2018-12-07T06:44:21.734Z,100.0
2018-12-07T06:45:23.120Z,100.0
2018-12-07T06:46:24.504Z,100.0
2018-12-07T06:47:25.890Z,100.0
2018-12-07T06:48:27.276Z,100.0
2018-12-07T06:49:28.668Z,100.0
2018-12-07T06:50:30.059Z,100.0
2018-12-07T06:51:31.443Z,100.0
2018-12-07T06:52:32.833Z,100.0
2018-12-07T06:53:34.230Z,100.0
2018-12-07T06:54:35.720Z,100.0
2018-12-07T06:55:37.069Z,100.0
2018-12-07T06:56:38.454Z,100.0
2018-12-07T06:57:39.841Z,100.0
2018-12-07T06:58:41.231Z,100.0
2018-12-07T06:59:42.622Z,100.0
2018-12-07T07:00:44.005Z,100.0
2018-12-07T07:01:45.393Z,100.0
2018-12-07T07:02:46.775Z,100.0
2018-12-07T07:03:48.198Z,100.0
2018-12-07T07:04:49.596Z,100.0
2018-12-07T07:05:50.983Z,100.0
2018-12-07T07:06:52.393Z,100.0
2018-12-07T07:07:53.788Z,100.0
2018-12-07T07:08:55.200Z,100.0
2018-12-07T07:09:56.593Z,100.0
2018-12-07T07:10:57.979Z,100.0
2018-12-07T07:11:59.391Z,100.0
2018-12-07T07:13:00.808Z,100.0
2018-12-07T07:14:02.219Z,100.0
2018-12-07T07:15:03.629Z,100.0
2018-12-07T07:16:05.048Z,100.0
2018-12-07T07:17:06.528Z,100.0
2018-12-07T07:18:07.927Z,100.0
2018-12-07T07:19:09.313Z,100.0
2018-12-07T07:20:10.823Z,100.0
2018-12-07T07:21:12.270Z,100.0
2018-12-07T07:22:13.721Z,100.0
2018-12-07T07:23:15.142Z,100.0
2018-12-07T07:24:16.543Z,100.0
2018-12-07T07:25:17.936Z,100.0
2018-12-07T07:26:19.322Z,100.0
2018-12-07T07:27:20.714Z,100.0
2018-12-07T07:28:22.119Z,100.0
2018-12-07T07:29:23.504Z,100.0
2018-12-07T07:30:24.899Z,100.0
2018-12-07T07:31:26.297Z,100.0
2018-12-07T07:32:27.695Z,100.0
2018-12-07T07:33:29.098Z,100.0
2018-12-07T07:34:30.518Z,100.0
2018-12-07T07:35:31.901Z,100.0
2018-12-07T07:36:33.287Z,100.0
2018-12-07T07:37:34.692Z,100.0
2018-12-07T07:38:36.079Z,100.0
2018-12-07T07:39:37.475Z,100.0
2018-12-07T07:40:38.879Z,100.0
2018-12-07T07:41:40.296Z,100.0
2018-12-07T07:42:41.691Z,100.0
2018-12-07T07:43:43.088Z,100.0
2018-12-07T07:44:44.490Z,100.0
2018-12-07T07:45:45.890Z,100.0
2018-12-07T07:46:47.350Z,100.0
2018-12-07T07:47:48.778Z,100.0
2018-12-07T07:48:50.168Z,100.0
2018-12-07T07:49:51.566Z,100.0
2018-12-07T07:50:53.170Z,100.0
2018-12-07T07:51:54.422Z,100.0
2018-12-07T07:52:55.886Z,100.0
2018-12-07T07:53:57.295Z,100.0
2018-12-07T07:54:58.691Z,100.0
2018-12-07T07:56:00.086Z,100.0
2018-12-07T07:57:01.593Z,100.0
2018-12-07T07:58:02.939Z,100.0
2018-12-07T07:59:04.374Z,100.0
2018-12-07T08:00:05.804Z,100.0
2018-12-07T08:01:07.241Z,100.0
2018-12-07T08:02:08.635Z,100.0
2018-12-07T08:03:10.026Z,100.0
2018-12-07T08:04:11.451Z,100.0
2018-12-07T08:05:12.850Z,100.0
2018-12-07T08:06:14.283Z,100.0
2018-12-07T08:07:15.692Z,100.0
2018-12-07T08:08:17.093Z,100.0
2018-12-07T08:09:18.497Z,100.0
2018-12-07T08:10:19.954Z,100.0
2018-12-07T08:11:21.426Z,100.0
2018-12-07T08:12:22.814Z,100.0
2018-12-07T08:14:03.902Z,100.0
2018-12-07T08:15:45.900Z,100.0
2018-12-07T08:16:47.286Z,100.0
2018-12-07T08:18:08.998Z,100.0
2018-12-07T08:19:10.406Z,100.0
2018-12-07T08:20:32.062Z,100.0
2018-12-07T08:21:33.466Z,100.0
2018-12-07T08:22:55.378Z,100.0
2018-12-07T08:23:56.784Z,100.0
2018-12-07T08:24:58.177Z,100.0
2018-12-07T08:25:59.563Z,100.0
2018-12-07T08:27:00.947Z,100.0
2018-12-07T08:28:02.347Z,100.0
2018-12-07T08:29:03.748Z,100.0
2018-12-07T08:30:05.210Z,100.0
2018-12-07T08:31:06.720Z,100.0
2018-12-07T08:32:08.102Z,100.0
2018-12-07T08:33:09.496Z,100.0
2018-12-07T08:34:10.955Z,100.0
2018-12-07T08:35:12.342Z,100.0
2018-12-07T08:36:13.730Z,100.0
2018-12-07T08:37:15.115Z,100.0
2018-12-07T08:38:16.499Z,100.0
2018-12-07T08:39:17.921Z,100.0
2018-12-07T08:40:19.301Z,100.0
2018-12-07T08:41:20.697Z,100.0
2018-12-07T08:42:22.080Z,100.0
2018-12-07T08:43:23.470Z,100.0
2018-12-07T08:44:24.899Z,100.0
2018-12-07T08:45:26.299Z,100.0
2018-12-07T08:46:27.681Z,100.0
2018-12-07T08:47:29.078Z,100.0
2018-12-07T08:48:30.476Z,100.0
2018-12-07T08:49:31.867Z,100.0
2018-12-07T08:50:33.253Z,100.0
2018-12-07T08:51:34.643Z,100.0
2018-12-07T08:52:36.030Z,100.0
2018-12-07T08:53:37.419Z,100.0
2018-12-07T08:54:38.810Z,100.0
2018-12-07T08:55:40.202Z,100.0
2018-12-07T08:56:41.607Z,100.0
2018-12-07T08:57:42.993Z,100.0
2018-12-07T08:58:44.387Z,100.0
2018-12-07T08:59:45.763Z,100.0
2018-12-07T09:00:47.149Z,100.0
2018-12-07T09:01:48.529Z,100.0
2018-12-07T09:02:49.932Z,100.0
2018-12-07T09:03:51.318Z,100.0
2018-12-07T09:04:52.716Z,100.0
2018-12-07T09:05:54.103Z,100.0
2018-12-07T09:06:55.490Z,100.0
2018-12-07T09:07:56.944Z,100.0
2018-12-07T09:08:58.301Z,100.0
2018-12-07T09:09:59.705Z,100.0
2018-12-07T09:11:01.157Z,100.0
2018-12-07T09:12:02.503Z,100.0
2018-12-07T09:13:03.903Z,100.0
2018-12-07T09:14:05.290Z,100.0
2018-12-07T09:15:06.694Z,100.0
2018-12-07T09:16:08.083Z,100.0
2018-12-07T09:17:09.471Z,100.0
2018-12-07T09:18:10.863Z,100.0
2018-12-07T09:19:12.328Z,100.0
2018-12-07T09:20:13.605Z,100.0
2018-12-07T09:21:15.078Z,100.0
2018-12-07T09:22:16.481Z,100.0
2018-12-07T09:23:17.892Z,100.0
2018-12-07T09:24:19.292Z,100.0
2018-12-07T09:25:20.695Z,100.0
2018-12-07T09:26:22.085Z,100.0
2018-12-07T09:27:23.475Z,100.0
2018-12-07T09:28:24.867Z,100.0
2018-12-07T09:29:26.263Z,100.0
2018-12-07T09:30:27.655Z,100.0
2018-12-07T09:31:29.052Z,100.0
2018-12-07T09:32:30.446Z,100.0
2018-12-07T09:33:31.869Z,100.0
2018-12-07T09:34:33.266Z,100.0
2018-12-07T09:35:34.656Z,100.0
2018-12-07T09:36:36.053Z,100.0
2018-12-07T09:37:37.439Z,100.0
2018-12-07T09:38:38.828Z,100.0
2018-12-07T09:39:40.216Z,100.0
2018-12-07T09:40:41.605Z,100.0
2018-12-07T09:41:43.001Z,100.0
2018-12-07T09:42:44.392Z,100.0
2018-12-07T09:43:45.778Z,100.0
2018-12-07T09:44:47.174Z,100.0
2018-12-07T09:45:48.593Z,100.0
2018-12-07T09:46:49.985Z,100.0
2018-12-07T09:47:51.375Z,100.0
2018-12-07T09:48:52.773Z,100.0
2018-12-07T09:49:54.155Z,100.0
2018-12-07T09:50:55.595Z,100.0
2018-12-07T09:51:56.955Z,100.0
2018-12-07T09:52:58.356Z,100.0
2018-12-07T09:53:59.759Z,100.0
2018-12-07T09:55:01.204Z,100.0
2018-12-07T09:56:02.605Z,100.0
2018-12-07T09:57:03.992Z,100.0
2018-12-07T09:58:05.379Z,100.0
2018-12-07T09:59:06.788Z,100.0
2018-12-07T10:00:08.183Z,100.0
2018-12-07T10:01:09.578Z,100.0
2018-12-07T10:02:10.984Z,100.0
2018-12-07T10:03:12.388Z,100.0
2018-12-07T10:04:13.778Z,100.0
2018-12-07T10:05:15.171Z,100.0
2018-12-07T10:06:16.542Z,100.0
2018-12-07T10:07:17.936Z,100.0
2018-12-07T10:08:19.325Z,100.0
2018-12-07T10:09:20.726Z,100.0
2018-12-07T10:10:22.109Z,100.0
2018-12-07T10:11:23.540Z,100.0
2018-12-07T10:12:25.027Z,100.0
2018-12-07T10:13:26.430Z,100.0
2018-12-07T10:14:27.845Z,100.0
2018-12-07T10:15:29.215Z,100.0
2018-12-07T10:16:30.619Z,100.0
2018-12-07T10:17:32.028Z,100.0
2018-12-07T10:18:33.408Z,100.0
2018-12-07T10:19:34.812Z,100.0
2018-12-07T10:20:36.209Z,100.0
2018-12-07T10:21:37.592Z,100.0
2018-12-07T10:22:38.999Z,100.0
2018-12-07T10:23:40.406Z,100.0
2018-12-07T10:24:41.819Z,100.0
2018-12-07T10:25:43.204Z,100.0
2018-12-07T10:26:44.591Z,100.0
2018-12-07T10:27:45.975Z,99.5
2018-12-07T10:28:47.367Z,100.0
2018-12-07T10:29:48.758Z,99.9
2018-12-07T10:30:50.163Z,100.0
2018-12-07T10:31:51.629Z,100.0
2018-12-07T10:32:53.092Z,100.0
2018-12-07T10:33:54.419Z,100.0
2018-12-07T10:34:55.822Z,99.1
2018-12-07T10:35:57.204Z,99.5
2018-12-07T10:37:38.229Z,99.3
2018-12-07T10:39:19.271Z,99.2
2018-12-07T10:41:01.299Z,99.4
2018-12-07T10:42:42.328Z,99.4
2018-12-07T10:43:43.717Z,99.0
2018-12-07T10:44:45.118Z,98.8
2018-12-07T10:45:46.515Z,98.5
2018-12-07T10:46:47.904Z,98.4
2018-12-07T10:47:50.374Z,98.2
2018-12-07T10:48:50.687Z,98.0
2018-12-07T10:49:52.078Z,98.1
2018-12-07T10:50:53.482Z,97.6
2018-12-07T10:51:54.956Z,97.4
2018-12-07T10:52:56.420Z,97.6
2018-12-07T10:53:57.821Z,97.2
2018-12-07T10:54:59.216Z,97.7
2018-12-07T10:56:00.664Z,97.0
2018-12-07T10:57:02.017Z,96.6
2018-12-07T10:58:03.410Z,96.6
2018-12-07T10:59:04.801Z,97.1
2018-12-07T11:00:06.213Z,96.9
2018-12-07T11:01:07.612Z,97.0
2018-12-07T11:02:09.004Z,96.2
2018-12-07T11:03:10.410Z,95.6
2018-12-07T11:04:11.854Z,95.5
2018-12-07T11:05:13.185Z,95.6
2018-12-07T11:06:14.571Z,96.5
2018-12-07T11:07:15.975Z,95.5
2018-12-07T11:08:17.381Z,95.0
2018-12-07T11:09:18.789Z,95.0
2018-12-07T11:10:20.180Z,95.3
2018-12-07T11:11:21.569Z,95.6
2018-12-07T11:12:22.955Z,95.7
2018-12-07T11:13:24.352Z,95.4
2018-12-07T11:14:25.742Z,95.6
2018-12-07T11:15:27.152Z,95.2
2018-12-07T11:16:28.572Z,94.1
2018-12-07T11:17:29.963Z,94.5
2018-12-07T11:18:31.353Z,94.5
2018-12-07T11:19:32.762Z,94.6
2018-12-07T11:20:34.155Z,94.4
2018-12-07T11:21:35.546Z,94.4
2018-12-07T11:22:36.935Z,94.2
2018-12-07T11:23:38.367Z,94.9
2018-12-07T11:24:39.752Z,95.6
2018-12-07T11:25:41.146Z,96.1
2018-12-07T11:26:42.559Z,96.2
2018-12-07T11:27:43.934Z,95.7
2018-12-07T11:28:45.328Z,95.1
2018-12-07T11:29:46.720Z,95.2
2018-12-07T11:30:48.107Z,95.3
2018-12-07T11:31:49.509Z,94.5
2018-12-07T11:32:50.861Z,94.4
2018-12-07T11:33:52.258Z,94.8
2018-12-07T11:34:53.645Z,94.2
2018-12-07T11:35:55.057Z,94.3
2018-12-07T11:36:56.449Z,94.2
2018-12-07T11:37:57.854Z,93.4
2018-12-07T11:38:59.242Z,94.3
2018-12-07T11:40:00.635Z,94.5
2018-12-07T11:41:02.037Z,94.3
2018-12-07T11:42:03.509Z,94.5
2018-12-07T11:43:04.910Z,94.2
2018-12-07T11:44:06.314Z,93.8
2018-12-07T11:45:07.716Z,93.4
2018-12-07T11:46:09.120Z,93.7
2018-12-07T11:47:10.500Z,93.9
2018-12-07T11:48:11.887Z,94.5
2018-12-07T11:49:13.275Z,94.3
2018-12-07T11:50:14.660Z,94.5
2018-12-07T11:51:16.057Z,95.4
2018-12-07T11:52:17.455Z,94.6
2018-12-07T11:53:18.844Z,93.8
2018-12-07T11:54:20.420Z,94.0
2018-12-07T11:55:21.812Z,94.1
2018-12-07T11:56:23.195Z,94.4
2018-12-07T11:57:24.611Z,94.8
2018-12-07T11:58:26.011Z,95.0
2018-12-07T11:59:27.418Z,94.2
2018-12-07T12:00:28.818Z,94.5
2018-12-07T12:01:30.252Z,93.6
2018-12-07T12:02:31.622Z,93.7
2018-12-07T12:03:33.038Z,94.4
2018-12-07T12:04:34.427Z,94.1
2018-12-07T12:05:35.818Z,94.2
2018-12-07T12:06:37.203Z,94.7
2018-12-07T12:07:38.616Z,94.6
2018-12-07T12:08:40.005Z,94.4
2018-12-07T12:09:41.390Z,94.0
2018-12-07T12:10:42.784Z,94.3
2018-12-07T12:11:44.171Z,95.0
2018-12-07T12:12:45.558Z,94.3
2018-12-07T12:13:46.954Z,94.5
2018-12-07T12:14:48.347Z,94.7
2018-12-07T12:15:49.737Z,94.2
2018-12-07T12:16:51.171Z,94.4
2018-12-07T12:17:52.517Z,94.2
2018-12-07T12:18:53.919Z,94.4
2018-12-07T12:19:55.305Z,94.5
2018-12-07T12:20:56.693Z,94.3
2018-12-07T12:21:58.096Z,93.6
2018-12-07T12:22:59.489Z,94.1
2018-12-07T12:24:00.897Z,94.0
2018-12-07T12:25:02.286Z,94.4
2018-12-07T12:26:03.682Z,92.9
2018-12-07T12:27:05.073Z,92.3
2018-12-07T12:28:06.470Z,91.4
2018-12-07T12:29:07.864Z,90.7
2018-12-07T12:30:09.279Z,90.9
2018-12-07T12:31:10.653Z,89.6
2018-12-07T12:32:12.182Z,88.4
2018-12-07T12:33:13.580Z,87.9
2018-12-07T12:34:14.984Z,86.3
2018-12-07T12:35:16.376Z,85.3
2018-12-07T12:36:17.772Z,83.7
2018-12-07T12:37:19.172Z,83.4
2018-12-07T12:38:20.575Z,81.1
2018-12-07T12:39:21.970Z,79.3
2018-12-07T12:40:23.359Z,75.1
2018-12-07T12:41:24.753Z,72.8
2018-12-07T12:42:26.145Z,71.2
2018-12-07T12:43:27.538Z,69.6
2018-12-07T12:44:28.934Z,68.8
2018-12-07T12:45:30.326Z,69.9
2018-12-07T12:46:31.723Z,71.4
2018-12-07T12:47:33.135Z,73.3
2018-12-07T12:48:34.515Z,76.3
2018-12-07T12:49:35.911Z,78.7
2018-12-07T12:50:37.319Z,80.0
2018-12-07T12:51:38.713Z,81.5
2018-12-07T12:52:40.102Z,82.0
2018-12-07T12:53:41.493Z,82.8
2018-12-07T12:54:42.879Z,83.0
2018-12-07T12:55:44.271Z,82.5
2018-12-07T12:56:45.659Z,83.4
2018-12-07T12:57:47.054Z,83.7
2018-12-07T12:58:48.453Z,83.7
2018-12-07T12:59:49.843Z,83.6
2018-12-07T13:00:51.232Z,84.4
2018-12-07T13:01:52.622Z,84.2
2018-12-07T13:02:54.018Z,85.0
2018-12-07T13:03:55.406Z,85.6
2018-12-07T13:04:56.799Z,85.5
2018-12-07T13:05:58.192Z,85.6
2018-12-07T13:06:59.637Z,85.9
2018-12-07T13:08:01.024Z,86.3
2018-12-07T13:09:02.411Z,86.7
2018-12-07T13:10:03.813Z,86.4
2018-12-07T13:11:05.216Z,86.4
2018-12-07T13:12:06.618Z,86.9
2018-12-07T13:13:08.012Z,87.0
2018-12-07T13:14:09.399Z,87.8
2018-12-07T13:15:10.803Z,87.8
2018-12-07T13:16:12.217Z,88.4
2018-12-07T13:17:13.628Z,88.6
2018-12-07T13:18:15.016Z,88.2
2018-12-07T13:19:16.410Z,88.3
2018-12-07T13:20:17.805Z,88.1
2018-12-07T13:21:19.189Z,88.5